sensor_id;sensor_type;location;lat;lon;timestamp;temperature;humidity
48206;DHT22;33995;48.202;16.260;2023-03-01T00:02:11;-0.80;99.90
48206;DHT22;33995;48.202;16.260;2023-03-01T00:04:39;-0.70;99.90
48206;DHT22;33995;48.202;16.260;2023-03-01T00:07:09;-0.70;99.90
48206;DHT22;33995;48.202;16.260;2023-03-01T00:09:38;-0.80;99.90
48206;DHT22;33995;48.202;16.260;2023-03-01T00:12:08;-0.90;99.90
48206;DHT22;33995;48.202;16.260;2023-03-01T00:14:39;-1.00;99.90
48206;DHT22;33995;48.202;16.260;2023-03-01T00:17:10;-1.00;99.90
48206;DHT22;33995;48.202;16.260;2023-03-01T00:19:37;-0.90;99.90
48206;DHT22;33995;48.202;16.260;2023-03-01T00:22:05;-1.00;99.90
48206;DHT22;33995;48.202;16.260;2023-03-01T00:24:36;-1.00;99.90
48206;DHT22;33995;48.202;16.260;2023-03-01T00:27:07;-1.00;99.90
48206;DHT22;33995;48.202;16.260;2023-03-01T00:29:37;-0.90;99.90
48206;DHT22;33995;48.202;16.260;2023-03-01T00:32:06;-0.90;99.90
48206;DHT22;33995;48.202;16.260;2023-03-01T00:34:39;-1.10;99.90
48206;DHT22;33995;48.202;16.260;2023-03-01T00:37:08;-1.10;99.90
48206;DHT22;33995;48.202;16.260;2023-03-01T00:39:36;-1.00;99.90
48206;DHT22;33995;48.202;16.260;2023-03-01T00:42:07;-1.10;99.90
48206;DHT22;33995;48.202;16.260;2023-03-01T00:44:36;-1.20;99.90
48206;DHT22;33995;48.202;16.260;2023-03-01T00:47:08;-1.10;99.90
48206;DHT22;33995;48.202;16.260;2023-03-01T00:49:36;-1.20;99.90
48206;DHT22;33995;48.202;16.260;2023-03-01T00:52:07;-1.20;99.90
48206;DHT22;33995;48.202;16.260;2023-03-01T00:54:36;-1.20;99.90
48206;DHT22;33995;48.202;16.260;2023-03-01T00:57:07;-1.30;99.90
48206;DHT22;33995;48.202;16.260;2023-03-01T00:59:38;-1.30;99.90
48206;DHT22;33995;48.202;16.260;2023-03-01T01:02:08;-1.30;99.90
48206;DHT22;33995;48.202;16.260;2023-03-01T01:04:38;-1.30;99.90
48206;DHT22;33995;48.202;16.260;2023-03-01T01:07:09;-1.30;99.90
48206;DHT22;33995;48.202;16.260;2023-03-01T01:09:39;-1.30;99.90
48206;DHT22;33995;48.202;16.260;2023-03-01T01:12:10;-1.40;99.90
48206;DHT22;33995;48.202;16.260;2023-03-01T01:14:39;-1.30;99.90
48206;DHT22;33995;48.202;16.260;2023-03-01T01:17:09;-1.30;99.90
48206;DHT22;33995;48.202;16.260;2023-03-01T01:19:41;-1.40;99.90
48206;DHT22;33995;48.202;16.260;2023-03-01T01:22:13;-1.30;99.90
48206;DHT22;33995;48.202;16.260;2023-03-01T01:24:44;-1.30;99.90
48206;DHT22;33995;48.202;16.260;2023-03-01T01:27:16;-1.40;99.90
48206;DHT22;33995;48.202;16.260;2023-03-01T01:29:47;-1.50;99.90
48206;DHT22;33995;48.202;16.260;2023-03-01T01:32:14;-1.40;99.90
48206;DHT22;33995;48.202;16.260;2023-03-01T01:34:43;-1.30;99.90
48206;DHT22;33995;48.202;16.260;2023-03-01T01:37:14;-1.30;99.90
48206;DHT22;33995;48.202;16.260;2023-03-01T01:39:46;-1.20;99.90
48206;DHT22;33995;48.202;16.260;2023-03-01T01:42:18;-1.20;99.90
48206;DHT22;33995;48.202;16.260;2023-03-01T01:44:46;-1.30;99.90
48206;DHT22;33995;48.202;16.260;2023-03-01T01:47:20;-1.30;99.90
48206;DHT22;33995;48.202;16.260;2023-03-01T01:49:54;-1.30;99.90
48206;DHT22;33995;48.202;16.260;2023-03-01T01:55:16;-1.10;99.90
48206;DHT22;33995;48.202;16.260;2023-03-01T01:57:57;-1.10;99.90
48206;DHT22;33995;48.202;16.260;2023-03-01T02:00:28;-1.10;99.90
48206;DHT22;33995;48.202;16.260;2023-03-01T02:03:03;-1.10;99.90
48206;DHT22;33995;48.202;16.260;2023-03-01T02:08:45;-0.90;99.90
48206;DHT22;33995;48.202;16.260;2023-03-01T02:11:18;-1.00;99.90
48206;DHT22;33995;48.202;16.260;2023-03-01T02:13:49;-1.10;99.90
48206;DHT22;33995;48.202;16.260;2023-03-01T02:16:21;-1.00;99.90
48206;DHT22;33995;48.202;16.260;2023-03-01T02:18:51;-0.90;99.90
48206;DHT22;33995;48.202;16.260;2023-03-01T02:21:56;-0.80;99.90
48206;DHT22;33995;48.202;16.260;2023-03-01T02:27:12;-0.80;99.90
48206;DHT22;33995;48.202;16.260;2023-03-01T02:29:45;-0.80;99.90
48206;DHT22;33995;48.202;16.260;2023-03-01T02:32:16;-0.70;99.90
48206;DHT22;33995;48.202;16.260;2023-03-01T02:34:55;-0.70;99.90
48206;DHT22;33995;48.202;16.260;2023-03-01T02:37:26;-0.60;99.90
48206;DHT22;33995;48.202;16.260;2023-03-01T02:40:02;-0.60;99.90
48206;DHT22;33995;48.202;16.260;2023-03-01T02:42:43;-0.60;99.90
48206;DHT22;33995;48.202;16.260;2023-03-01T02:45:15;-0.50;99.90
48206;DHT22;33995;48.202;16.260;2023-03-01T02:47:53;-0.70;99.90
48206;DHT22;33995;48.202;16.260;2023-03-01T02:53:41;-0.50;99.90
48206;DHT22;33995;48.202;16.260;2023-03-01T02:56:16;-0.30;99.90
48206;DHT22;33995;48.202;16.260;2023-03-01T02:58:48;-0.40;99.90
48206;DHT22;33995;48.202;16.260;2023-03-01T03:01:23;-0.30;99.90
48206;DHT22;33995;48.202;16.260;2023-03-01T03:04:11;-0.40;99.90
48206;DHT22;33995;48.202;16.260;2023-03-01T03:06:45;-0.30;99.90
48206;DHT22;33995;48.202;16.260;2023-03-01T03:09:17;-0.40;99.90
48206;DHT22;33995;48.202;16.260;2023-03-01T03:11:47;-0.50;99.90
48206;DHT22;33995;48.202;16.260;2023-03-01T03:14:18;-0.40;99.90
48206;DHT22;33995;48.202;16.260;2023-03-01T03:16:49;-0.40;99.90
48206;DHT22;33995;48.202;16.260;2023-03-01T03:19:18;-0.40;99.90
48206;DHT22;33995;48.202;16.260;2023-03-01T03:21:47;-0.30;99.90
48206;DHT22;33995;48.202;16.260;2023-03-01T03:24:16;-0.30;99.90
48206;DHT22;33995;48.202;16.260;2023-03-01T03:26:46;-0.20;99.90
48206;DHT22;33995;48.202;16.260;2023-03-01T03:29:15;-0.30;99.90
48206;DHT22;33995;48.202;16.260;2023-03-01T03:31:42;-0.40;99.90
48206;DHT22;33995;48.202;16.260;2023-03-01T03:34:12;-0.40;99.90
48206;DHT22;33995;48.202;16.260;2023-03-01T03:36:47;-0.40;99.90
48206;DHT22;33995;48.202;16.260;2023-03-01T03:39:16;-0.40;99.90
48206;DHT22;33995;48.202;16.260;2023-03-01T03:41:47;-0.40;99.90
48206;DHT22;33995;48.202;16.260;2023-03-01T03:44:18;-0.20;99.90
48206;DHT22;33995;48.202;16.260;2023-03-01T03:46:48;-0.20;99.90
48206;DHT22;33995;48.202;16.260;2023-03-01T03:49:18;-0.10;99.90
48206;DHT22;33995;48.202;16.260;2023-03-01T03:51:48;-0.30;99.90
48206;DHT22;33995;48.202;16.260;2023-03-01T03:54:19;-0.20;99.90
48206;DHT22;33995;48.202;16.260;2023-03-01T03:56:48;-0.10;99.90
48206;DHT22;33995;48.202;16.260;2023-03-01T03:59:17;-0.10;99.90
48206;DHT22;33995;48.202;16.260;2023-03-01T04:01:46;-0.10;99.90
48206;DHT22;33995;48.202;16.260;2023-03-01T04:04:13;-0.10;99.90
48206;DHT22;33995;48.202;16.260;2023-03-01T04:06:44;-0.10;99.90
48206;DHT22;33995;48.202;16.260;2023-03-01T04:09:12;0.00;99.90
48206;DHT22;33995;48.202;16.260;2023-03-01T04:11:42;0.10;99.90
48206;DHT22;33995;48.202;16.260;2023-03-01T04:14:12;0.00;99.90
48206;DHT22;33995;48.202;16.260;2023-03-01T04:16:44;0.00;99.90
48206;DHT22;33995;48.202;16.260;2023-03-01T04:19:16;0.00;99.90
48206;DHT22;33995;48.202;16.260;2023-03-01T04:21:44;0.00;99.90
48206;DHT22;33995;48.202;16.260;2023-03-01T04:24:18;0.00;99.90
48206;DHT22;33995;48.202;16.260;2023-03-01T04:26:49;0.10;99.90
48206;DHT22;33995;48.202;16.260;2023-03-01T04:29:16;0.10;99.90
48206;DHT22;33995;48.202;16.260;2023-03-01T04:31:51;0.20;99.90
48206;DHT22;33995;48.202;16.260;2023-03-01T04:34:22;0.10;99.90
48206;DHT22;33995;48.202;16.260;2023-03-01T04:36:53;0.20;99.90
48206;DHT22;33995;48.202;16.260;2023-03-01T04:39:24;0.10;99.90
48206;DHT22;33995;48.202;16.260;2023-03-01T04:41:51;0.20;99.90
48206;DHT22;33995;48.202;16.260;2023-03-01T04:44:19;0.20;99.90
48206;DHT22;33995;48.202;16.260;2023-03-01T04:46:49;0.30;99.90
48206;DHT22;33995;48.202;16.260;2023-03-01T04:49:19;0.30;99.90
48206;DHT22;33995;48.202;16.260;2023-03-01T04:51:47;0.20;99.90
48206;DHT22;33995;48.202;16.260;2023-03-01T04:54:14;0.10;99.90
48206;DHT22;33995;48.202;16.260;2023-03-01T04:56:48;0.10;99.90
48206;DHT22;33995;48.202;16.260;2023-03-01T04:59:15;0.20;99.90
48206;DHT22;33995;48.202;16.260;2023-03-01T05:01:45;0.30;99.90
48206;DHT22;33995;48.202;16.260;2023-03-01T05:04:15;0.40;99.90
48206;DHT22;33995;48.202;16.260;2023-03-01T05:06:45;0.30;99.90
48206;DHT22;33995;48.202;16.260;2023-03-01T05:09:15;0.30;99.90
48206;DHT22;33995;48.202;16.260;2023-03-01T05:11:46;0.30;99.90
48206;DHT22;33995;48.202;16.260;2023-03-01T05:14:17;0.20;99.90
48206;DHT22;33995;48.202;16.260;2023-03-01T05:16:46;0.20;99.90
48206;DHT22;33995;48.202;16.260;2023-03-01T05:19:16;0.30;99.90
48206;DHT22;33995;48.202;16.260;2023-03-01T05:21:51;0.50;99.90
48206;DHT22;33995;48.202;16.260;2023-03-01T05:24:37;0.50;99.90
48206;DHT22;33995;48.202;16.260;2023-03-01T05:27:07;0.30;99.90
48206;DHT22;33995;48.202;16.260;2023-03-01T05:29:38;0.30;99.90
48206;DHT22;33995;48.202;16.260;2023-03-01T05:32:09;0.30;99.90
48206;DHT22;33995;48.202;16.260;2023-03-01T05:34:52;0.40;99.90
48206;DHT22;33995;48.202;16.260;2023-03-01T05:37:21;0.40;99.90
48206;DHT22;33995;48.202;16.260;2023-03-01T05:39:49;0.40;99.90
48206;DHT22;33995;48.202;16.260;2023-03-01T05:42:19;0.40;99.90
48206;DHT22;33995;48.202;16.260;2023-03-01T05:44:48;0.40;99.90
48206;DHT22;33995;48.202;16.260;2023-03-01T05:47:16;0.60;99.90
48206;DHT22;33995;48.202;16.260;2023-03-01T05:49:43;0.60;99.90
48206;DHT22;33995;48.202;16.260;2023-03-01T05:52:11;0.50;99.90
48206;DHT22;33995;48.202;16.260;2023-03-01T05:54:41;0.60;99.90
48206;DHT22;33995;48.202;16.260;2023-03-01T05:57:14;0.60;99.90
48206;DHT22;33995;48.202;16.260;2023-03-01T05:59:45;0.60;99.90
48206;DHT22;33995;48.202;16.260;2023-03-01T06:02:15;0.60;99.90
48206;DHT22;33995;48.202;16.260;2023-03-01T06:04:42;0.60;99.90
48206;DHT22;33995;48.202;16.260;2023-03-01T06:07:14;0.60;99.90
48206;DHT22;33995;48.202;16.260;2023-03-01T06:09:45;0.70;99.90
48206;DHT22;33995;48.202;16.260;2023-03-01T06:12:15;0.70;99.90
48206;DHT22;33995;48.202;16.260;2023-03-01T06:14:46;0.70;99.90
48206;DHT22;33995;48.202;16.260;2023-03-01T06:17:19;0.80;99.90
48206;DHT22;33995;48.202;16.260;2023-03-01T06:19:49;0.80;99.90
48206;DHT22;33995;48.202;16.260;2023-03-01T06:22:19;0.80;99.90
48206;DHT22;33995;48.202;16.260;2023-03-01T06:24:49;0.80;99.90
48206;DHT22;33995;48.202;16.260;2023-03-01T06:27:22;0.90;99.90
48206;DHT22;33995;48.202;16.260;2023-03-01T06:29:52;0.90;99.90
48206;DHT22;33995;48.202;16.260;2023-03-01T06:32:25;1.00;99.90
48206;DHT22;33995;48.202;16.260;2023-03-01T06:34:57;0.90;99.90
48206;DHT22;33995;48.202;16.260;2023-03-01T06:37:28;1.00;99.90
48206;DHT22;33995;48.202;16.260;2023-03-01T06:39:55;1.20;99.90
48206;DHT22;33995;48.202;16.260;2023-03-01T06:42:23;1.20;99.90
48206;DHT22;33995;48.202;16.260;2023-03-01T06:44:51;1.30;99.90
48206;DHT22;33995;48.202;16.260;2023-03-01T06:47:22;1.10;99.90
48206;DHT22;33995;48.202;16.260;2023-03-01T06:49:53;1.10;99.90
48206;DHT22;33995;48.202;16.260;2023-03-01T06:52:23;1.20;99.90
48206;DHT22;33995;48.202;16.260;2023-03-01T06:54:53;1.30;99.90
48206;DHT22;33995;48.202;16.260;2023-03-01T06:57:24;1.40;99.90
48206;DHT22;33995;48.202;16.260;2023-03-01T06:59:55;1.40;99.90
48206;DHT22;33995;48.202;16.260;2023-03-01T07:02:26;1.40;99.90
48206;DHT22;33995;48.202;16.260;2023-03-01T07:04:55;1.40;99.90
48206;DHT22;33995;48.202;16.260;2023-03-01T07:07:25;1.50;99.90
48206;DHT22;33995;48.202;16.260;2023-03-01T07:09:56;1.70;99.90
48206;DHT22;33995;48.202;16.260;2023-03-01T07:12:26;1.80;99.90
48206;DHT22;33995;48.202;16.260;2023-03-01T07:14:54;1.90;99.90
48206;DHT22;33995;48.202;16.260;2023-03-01T07:17:23;2.00;99.90
48206;DHT22;33995;48.202;16.260;2023-03-01T07:19:54;1.80;99.90
48206;DHT22;33995;48.202;16.260;2023-03-01T07:22:22;1.80;99.90
48206;DHT22;33995;48.202;16.260;2023-03-01T07:24:50;1.80;99.90
48206;DHT22;33995;48.202;16.260;2023-03-01T07:27:21;2.00;99.90
48206;DHT22;33995;48.202;16.260;2023-03-01T07:29:50;2.10;99.90
48206;DHT22;33995;48.202;16.260;2023-03-01T07:32:21;2.10;99.90
48206;DHT22;33995;48.202;16.260;2023-03-01T07:34:51;2.20;99.90
48206;DHT22;33995;48.202;16.260;2023-03-01T07:37:19;2.20;99.90
48206;DHT22;33995;48.202;16.260;2023-03-01T07:39:46;2.30;99.90
48206;DHT22;33995;48.202;16.260;2023-03-01T07:42:16;2.40;99.90
48206;DHT22;33995;48.202;16.260;2023-03-01T07:44:46;2.50;99.90
48206;DHT22;33995;48.202;16.260;2023-03-01T07:47:17;2.60;99.90
48206;DHT22;33995;48.202;16.260;2023-03-01T07:49:46;2.60;99.90
48206;DHT22;33995;48.202;16.260;2023-03-01T07:52:17;2.60;99.90
48206;DHT22;33995;48.202;16.260;2023-03-01T07:54:45;2.70;99.90
48206;DHT22;33995;48.202;16.260;2023-03-01T07:57:18;2.70;99.90
48206;DHT22;33995;48.202;16.260;2023-03-01T07:59:45;2.70;99.90
48206;DHT22;33995;48.202;16.260;2023-03-01T08:02:16;2.80;99.90
48206;DHT22;33995;48.202;16.260;2023-03-01T08:04:43;2.60;99.90
48206;DHT22;33995;48.202;16.260;2023-03-01T08:07:13;2.60;99.90
48206;DHT22;33995;48.202;16.260;2023-03-01T08:09:41;2.80;99.90
48206;DHT22;33995;48.202;16.260;2023-03-01T08:12:11;2.90;99.90
48206;DHT22;33995;48.202;16.260;2023-03-01T08:14:43;2.80;99.90
48206;DHT22;33995;48.202;16.260;2023-03-01T08:17:14;2.90;99.90
48206;DHT22;33995;48.202;16.260;2023-03-01T08:19:44;3.10;99.90
48206;DHT22;33995;48.202;16.260;2023-03-01T08:22:13;3.20;99.90
48206;DHT22;33995;48.202;16.260;2023-03-01T08:24:44;3.00;99.90
48206;DHT22;33995;48.202;16.260;2023-03-01T08:27:12;3.10;99.90
48206;DHT22;33995;48.202;16.260;2023-03-01T08:29:44;3.00;99.90
48206;DHT22;33995;48.202;16.260;2023-03-01T08:32:13;3.10;99.90
48206;DHT22;33995;48.202;16.260;2023-03-01T08:34:47;3.30;99.90
48206;DHT22;33995;48.202;16.260;2023-03-01T08:37:18;3.30;99.90
48206;DHT22;33995;48.202;16.260;2023-03-01T08:39:46;3.60;99.90
48206;DHT22;33995;48.202;16.260;2023-03-01T08:42:15;3.60;99.90
48206;DHT22;33995;48.202;16.260;2023-03-01T08:44:45;3.90;99.90
48206;DHT22;33995;48.202;16.260;2023-03-01T08:47:15;4.10;99.90
48206;DHT22;33995;48.202;16.260;2023-03-01T08:49:43;4.50;99.90
48206;DHT22;33995;48.202;16.260;2023-03-01T08:52:13;4.70;99.90
48206;DHT22;33995;48.202;16.260;2023-03-01T08:54:43;5.10;99.90
48206;DHT22;33995;48.202;16.260;2023-03-01T08:57:13;5.40;99.90
48206;DHT22;33995;48.202;16.260;2023-03-01T08:59:46;5.60;99.90
48206;DHT22;33995;48.202;16.260;2023-03-01T09:02:17;5.90;99.90
48206;DHT22;33995;48.202;16.260;2023-03-01T09:04:45;6.10;99.90
48206;DHT22;33995;48.202;16.260;2023-03-01T09:07:16;6.10;99.90
48206;DHT22;33995;48.202;16.260;2023-03-01T09:09:46;5.90;99.90
48206;DHT22;33995;48.202;16.260;2023-03-01T09:12:16;5.80;99.90
48206;DHT22;33995;48.202;16.260;2023-03-01T09:14:46;6.00;99.90
48206;DHT22;33995;48.202;16.260;2023-03-01T09:17:16;6.30;99.90
48206;DHT22;33995;48.202;16.260;2023-03-01T09:19:47;6.20;99.90
48206;DHT22;33995;48.202;16.260;2023-03-01T09:22:15;5.90;99.90
48206;DHT22;33995;48.202;16.260;2023-03-01T09:24:42;5.70;99.90
48206;DHT22;33995;48.202;16.260;2023-03-01T09:27:13;5.90;99.90
48206;DHT22;33995;48.202;16.260;2023-03-01T09:29:45;6.00;99.90
48206;DHT22;33995;48.202;16.260;2023-03-01T09:32:15;6.20;99.90
48206;DHT22;33995;48.202;16.260;2023-03-01T09:34:45;6.50;99.90
48206;DHT22;33995;48.202;16.260;2023-03-01T09:37:36;6.40;99.90
48206;DHT22;33995;48.202;16.260;2023-03-01T09:40:06;6.90;99.90
48206;DHT22;33995;48.202;16.260;2023-03-01T09:42:53;7.00;99.90
48206;DHT22;33995;48.202;16.260;2023-03-01T09:45:30;7.00;99.90
48206;DHT22;33995;48.202;16.260;2023-03-01T09:48:03;6.70;99.90
48206;DHT22;33995;48.202;16.260;2023-03-01T09:50:39;6.50;99.90
48206;DHT22;33995;48.202;16.260;2023-03-01T09:53:31;6.60;99.90
48206;DHT22;33995;48.202;16.260;2023-03-01T09:56:22;6.50;99.90
48206;DHT22;33995;48.202;16.260;2023-03-01T10:02:52;6.60;99.90
48206;DHT22;33995;48.202;16.260;2023-03-01T10:06:06;6.20;99.90
48206;DHT22;33995;48.202;16.260;2023-03-01T10:11:22;6.20;99.90
48206;DHT22;33995;48.202;16.260;2023-03-01T10:20:42;6.20;99.90
48206;DHT22;33995;48.202;16.260;2023-03-01T10:23:16;6.10;99.90
48206;DHT22;33995;48.202;16.260;2023-03-01T10:31:55;6.00;99.90
48206;DHT22;33995;48.202;16.260;2023-03-01T10:34:28;5.70;99.90
48206;DHT22;33995;48.202;16.260;2023-03-01T10:37:18;5.70;99.90
48206;DHT22;33995;48.202;16.260;2023-03-01T10:40:07;5.80;99.90
48206;DHT22;33995;48.202;16.260;2023-03-01T10:42:47;6.30;99.90
48206;DHT22;33995;48.202;16.260;2023-03-01T10:45:38;6.50;99.90
48206;DHT22;33995;48.202;16.260;2023-03-01T10:48:19;6.70;99.90
48206;DHT22;33995;48.202;16.260;2023-03-01T10:51:14;7.00;99.90
48206;DHT22;33995;48.202;16.260;2023-03-01T10:53:53;6.60;99.90
48206;DHT22;33995;48.202;16.260;2023-03-01T10:56:23;6.60;99.90
48206;DHT22;33995;48.202;16.260;2023-03-01T10:59:38;6.70;99.90
48206;DHT22;33995;48.202;16.260;2023-03-01T11:02:28;6.60;99.90
48206;DHT22;33995;48.202;16.260;2023-03-01T11:05:20;6.70;99.90
48206;DHT22;33995;48.202;16.260;2023-03-01T11:08:07;6.40;99.90
48206;DHT22;33995;48.202;16.260;2023-03-01T11:10:36;6.30;99.90
48206;DHT22;33995;48.202;16.260;2023-03-01T11:13:18;6.70;99.90
48206;DHT22;33995;48.202;16.260;2023-03-01T11:16:06;7.00;99.90
48206;DHT22;33995;48.202;16.260;2023-03-01T11:18:36;7.10;99.90
48206;DHT22;33995;48.202;16.260;2023-03-01T11:21:16;7.30;99.90
48206;DHT22;33995;48.202;16.260;2023-03-01T11:23:47;7.40;99.90
48206;DHT22;33995;48.202;16.260;2023-03-01T11:26:18;7.60;99.90
48206;DHT22;33995;48.202;16.260;2023-03-01T11:28:53;7.30;99.90
48206;DHT22;33995;48.202;16.260;2023-03-01T11:31:28;7.40;99.90
48206;DHT22;33995;48.202;16.260;2023-03-01T11:34:14;7.30;99.90
48206;DHT22;33995;48.202;16.260;2023-03-01T11:36:56;7.10;99.90
48206;DHT22;33995;48.202;16.260;2023-03-01T11:39:43;7.50;99.90
48206;DHT22;33995;48.202;16.260;2023-03-01T11:45:11;7.30;99.90
48206;DHT22;33995;48.202;16.260;2023-03-01T11:48:24;7.10;99.90
48206;DHT22;33995;48.202;16.260;2023-03-01T12:07:01;7.30;99.90
48206;DHT22;33995;48.202;16.260;2023-03-01T12:16:08;7.30;99.90
48206;DHT22;33995;48.202;16.260;2023-03-01T12:33:00;7.50;99.90
48206;DHT22;33995;48.202;16.260;2023-03-01T12:50:42;7.90;99.90
48206;DHT22;33995;48.202;16.260;2023-03-01T12:53:32;7.70;99.90
48206;DHT22;33995;48.202;16.260;2023-03-01T12:56:21;7.50;99.90
48206;DHT22;33995;48.202;16.260;2023-03-01T13:13:23;11.70;99.50
48206;DHT22;33995;48.202;16.260;2023-03-01T13:15:56;12.00;98.30
48206;DHT22;33995;48.202;16.260;2023-03-01T13:18:29;11.60;97.60
48206;DHT22;33995;48.202;16.260;2023-03-01T13:20:58;11.30;98.30
48206;DHT22;33995;48.202;16.260;2023-03-01T13:23:37;10.50;98.40
48206;DHT22;33995;48.202;16.260;2023-03-01T13:34:53;11.00;99.20
48206;DHT22;33995;48.202;16.260;2023-03-01T13:37:26;10.70;99.70
48206;DHT22;33995;48.202;16.260;2023-03-01T13:39:59;11.60;99.10
48206;DHT22;33995;48.202;16.260;2023-03-01T13:42:41;12.50;98.20
48206;DHT22;33995;48.202;16.260;2023-03-01T13:45:43;12.50;97.60
48206;DHT22;33995;48.202;16.260;2023-03-01T13:48:23;12.70;96.90
48206;DHT22;33995;48.202;16.260;2023-03-01T13:50:57;12.50;96.90
48206;DHT22;33995;48.202;16.260;2023-03-01T13:53:37;12.30;97.10
48206;DHT22;33995;48.202;16.260;2023-03-01T13:56:16;11.60;97.90
48206;DHT22;33995;48.202;16.260;2023-03-01T13:58:58;10.70;98.30
48206;DHT22;33995;48.202;16.260;2023-03-01T14:01:33;10.50;99.10
48206;DHT22;33995;48.202;16.260;2023-03-01T14:07:22;10.80;99.60
48206;DHT22;33995;48.202;16.260;2023-03-01T14:09:57;11.00;98.70
48206;DHT22;33995;48.202;16.260;2023-03-01T14:15:37;13.20;97.30
48206;DHT22;33995;48.202;16.260;2023-03-01T14:21:16;15.10;94.40
48206;DHT22;33995;48.202;16.260;2023-03-01T14:23:47;17.40;91.90
48206;DHT22;33995;48.202;16.260;2023-03-01T14:26:20;16.90;91.20
48206;DHT22;33995;48.202;16.260;2023-03-01T14:28:51;17.40;91.20
48206;DHT22;33995;48.202;16.260;2023-03-01T14:31:38;16.90;90.70
48206;DHT22;33995;48.202;16.260;2023-03-01T14:34:23;15.00;92.40
48206;DHT22;33995;48.202;16.260;2023-03-01T14:37:19;17.10;90.60
48206;DHT22;33995;48.202;16.260;2023-03-01T14:39:50;17.60;90.70
48206;DHT22;33995;48.202;16.260;2023-03-01T14:42:27;15.70;91.00
48206;DHT22;33995;48.202;16.260;2023-03-01T14:44:56;14.50;91.60
48206;DHT22;33995;48.202;16.260;2023-03-01T14:47:28;13.00;93.40
48206;DHT22;33995;48.202;16.260;2023-03-01T14:50:04;12.00;94.50
48206;DHT22;33995;48.202;16.260;2023-03-01T14:52:46;11.50;96.00
48206;DHT22;33995;48.202;16.260;2023-03-01T14:55:27;10.90;96.90
48206;DHT22;33995;48.202;16.260;2023-03-01T14:57:59;10.50;97.70
48206;DHT22;33995;48.202;16.260;2023-03-01T15:00:30;10.20;98.30
48206;DHT22;33995;48.202;16.260;2023-03-01T15:03:14;9.90;98.60
48206;DHT22;33995;48.202;16.260;2023-03-01T15:05:46;9.40;99.30
48206;DHT22;33995;48.202;16.260;2023-03-01T15:08:27;9.10;99.80
48206;DHT22;33995;48.202;16.260;2023-03-01T15:11:30;8.90;99.90
48206;DHT22;33995;48.202;16.260;2023-03-01T15:13:59;8.80;99.90
48206;DHT22;33995;48.202;16.260;2023-03-01T15:16:39;8.60;99.90
48206;DHT22;33995;48.202;16.260;2023-03-01T15:19:17;8.50;99.90
48206;DHT22;33995;48.202;16.260;2023-03-01T15:21:49;8.40;99.90
48206;DHT22;33995;48.202;16.260;2023-03-01T15:24:20;8.50;99.90
48206;DHT22;33995;48.202;16.260;2023-03-01T15:29:26;8.40;99.90
48206;DHT22;33995;48.202;16.260;2023-03-01T15:34:52;8.30;99.90
48206;DHT22;33995;48.202;16.260;2023-03-01T15:40:30;8.10;99.90
48206;DHT22;33995;48.202;16.260;2023-03-01T15:43:07;8.00;99.90
48206;DHT22;33995;48.202;16.260;2023-03-01T15:45:59;7.90;99.90
48206;DHT22;33995;48.202;16.260;2023-03-01T15:48:30;7.90;99.90
48206;DHT22;33995;48.202;16.260;2023-03-01T15:51:03;7.80;99.90
48206;DHT22;33995;48.202;16.260;2023-03-01T15:53:31;7.80;99.90
48206;DHT22;33995;48.202;16.260;2023-03-01T15:56:03;7.70;99.90
48206;DHT22;33995;48.202;16.260;2023-03-01T15:58:32;7.70;99.90
48206;DHT22;33995;48.202;16.260;2023-03-01T16:01:07;7.60;99.90
48206;DHT22;33995;48.202;16.260;2023-03-01T16:03:38;7.70;99.90
48206;DHT22;33995;48.202;16.260;2023-03-01T16:06:08;7.70;99.90
48206;DHT22;33995;48.202;16.260;2023-03-01T16:08:38;7.70;99.90
48206;DHT22;33995;48.202;16.260;2023-03-01T16:11:13;7.70;99.90
48206;DHT22;33995;48.202;16.260;2023-03-01T16:13:45;7.60;99.90
48206;DHT22;33995;48.202;16.260;2023-03-01T16:16:18;7.50;99.90
48206;DHT22;33995;48.202;16.260;2023-03-01T16:18:50;7.50;99.90
48206;DHT22;33995;48.202;16.260;2023-03-01T16:21:24;7.60;99.90
48206;DHT22;33995;48.202;16.260;2023-03-01T16:23:54;7.50;99.90
48206;DHT22;33995;48.202;16.260;2023-03-01T16:26:22;7.50;99.90
48206;DHT22;33995;48.202;16.260;2023-03-01T16:28:58;7.50;99.90
48206;DHT22;33995;48.202;16.260;2023-03-01T16:31:29;7.50;99.90
48206;DHT22;33995;48.202;16.260;2023-03-01T16:33:58;7.50;99.90
48206;DHT22;33995;48.202;16.260;2023-03-01T16:36:30;7.50;99.90
48206;DHT22;33995;48.202;16.260;2023-03-01T16:39:01;7.40;99.90
48206;DHT22;33995;48.202;16.260;2023-03-01T16:41:34;7.40;99.90
48206;DHT22;33995;48.202;16.260;2023-03-01T16:44:05;7.40;99.90
48206;DHT22;33995;48.202;16.260;2023-03-01T16:46:38;7.40;99.90
48206;DHT22;33995;48.202;16.260;2023-03-01T16:49:11;7.30;99.90
48206;DHT22;33995;48.202;16.260;2023-03-01T16:51:40;7.40;99.90
48206;DHT22;33995;48.202;16.260;2023-03-01T16:54:11;7.30;99.90
48206;DHT22;33995;48.202;16.260;2023-03-01T16:56:43;7.40;99.90
48206;DHT22;33995;48.202;16.260;2023-03-01T16:59:16;7.30;99.90
48206;DHT22;33995;48.202;16.260;2023-03-01T17:01:49;7.30;99.90
48206;DHT22;33995;48.202;16.260;2023-03-01T17:04:16;7.30;99.90
48206;DHT22;33995;48.202;16.260;2023-03-01T17:06:45;7.30;99.90
48206;DHT22;33995;48.202;16.260;2023-03-01T17:09:21;7.20;99.90
48206;DHT22;33995;48.202;16.260;2023-03-01T17:11:53;7.20;99.90
48206;DHT22;33995;48.202;16.260;2023-03-01T17:14:24;7.20;99.90
48206;DHT22;33995;48.202;16.260;2023-03-01T17:16:55;7.10;99.90
48206;DHT22;33995;48.202;16.260;2023-03-01T17:19:25;7.10;99.90
48206;DHT22;33995;48.202;16.260;2023-03-01T17:22:01;7.10;99.90
48206;DHT22;33995;48.202;16.260;2023-03-01T17:24:36;7.20;99.90
48206;DHT22;33995;48.202;16.260;2023-03-01T17:27:11;7.20;99.90
48206;DHT22;33995;48.202;16.260;2023-03-01T17:29:45;7.10;99.90
48206;DHT22;33995;48.202;16.260;2023-03-01T17:32:16;7.00;99.90
48206;DHT22;33995;48.202;16.260;2023-03-01T17:34:57;7.00;99.90
48206;DHT22;33995;48.202;16.260;2023-03-01T17:37:27;7.00;99.90
48206;DHT22;33995;48.202;16.260;2023-03-01T17:39:58;6.90;99.90
48206;DHT22;33995;48.202;16.260;2023-03-01T17:42:32;6.90;99.90
48206;DHT22;33995;48.202;16.260;2023-03-01T17:45:03;6.80;99.90
48206;DHT22;33995;48.202;16.260;2023-03-01T17:47:34;6.70;99.90
48206;DHT22;33995;48.202;16.260;2023-03-01T17:50:03;6.70;99.90
48206;DHT22;33995;48.202;16.260;2023-03-01T17:52:37;6.60;99.90
48206;DHT22;33995;48.202;16.260;2023-03-01T17:55:07;6.50;99.90
48206;DHT22;33995;48.202;16.260;2023-03-01T17:57:39;6.40;99.90
48206;DHT22;33995;48.202;16.260;2023-03-01T18:00:12;6.40;99.90
48206;DHT22;33995;48.202;16.260;2023-03-01T18:02:45;6.30;99.90
48206;DHT22;33995;48.202;16.260;2023-03-01T18:05:13;6.30;99.90
48206;DHT22;33995;48.202;16.260;2023-03-01T18:07:43;6.20;99.90
48206;DHT22;33995;48.202;16.260;2023-03-01T18:10:15;6.10;99.90